createdAt,value
2022-12-28T00:01:27.223Z,101288.13
2022-12-28T00:03:29.209Z,101284.63
2022-12-28T00:05:31.120Z,101281.97
2022-12-28T00:07:32.987Z,101280.91
2022-12-28T00:09:35.866Z,101284.44
2022-12-28T00:11:38.209Z,101285.97
2022-12-28T00:13:40.159Z,101284.13
2022-12-28T00:15:42.029Z,101279.03
2022-12-28T00:17:43.902Z,101285.38
2022-12-28T00:19:45.931Z,101287.94
2022-12-28T00:21:47.977Z,101277.94
2022-12-28T00:23:54.378Z,101285.28
2022-12-28T00:26:10.423Z,101278.25
2022-12-28T00:28:12.358Z,101281.66
2022-12-28T00:30:14.498Z,101273.84
2022-12-28T00:32:16.397Z,101282.06
2022-12-28T00:34:18.295Z,101286.94
2022-12-28T00:36:20.225Z,101284.41
2022-12-28T00:38:22.440Z,101290.47
2022-12-28T00:40:24.434Z,101290.34
2022-12-28T00:42:27.366Z,101283.41
2022-12-28T00:44:30.162Z,101296.91
2022-12-28T00:46:33.035Z,101297.47
2022-12-28T00:48:34.974Z,101296.03
2022-12-28T00:50:36.932Z,101301.28
2022-12-28T00:52:38.911Z,101306.66
2022-12-28T00:54:41.828Z,101304.00
2022-12-28T00:56:43.776Z,101302.25
2022-12-28T00:58:45.885Z,101302.06
2022-12-28T01:00:49.557Z,101303.75
2022-12-28T01:02:51.686Z,101301.19
2022-12-28T01:04:56.112Z,101300.59
2022-12-28T01:06:58.998Z,101298.34
2022-12-28T01:09:00.888Z,101301.16
2022-12-28T01:11:12.309Z,101301.72
2022-12-28T01:13:14.182Z,101296.16
2022-12-28T01:15:16.163Z,101297.06
2022-12-28T01:17:18.033Z,101296.22
2022-12-28T01:19:23.401Z,101296.03
2022-12-28T01:21:29.421Z,101292.72
2022-12-28T01:23:31.279Z,101293.84
2022-12-28T01:25:34.051Z,101294.72
2022-12-28T01:27:36.012Z,101302.16
2022-12-28T01:29:37.883Z,101296.97
2022-12-28T01:31:39.820Z,101294.97
2022-12-28T01:33:42.253Z,101293.19
2022-12-28T01:35:44.076Z,101281.66
2022-12-28T01:37:45.904Z,101283.53
2022-12-28T01:39:47.849Z,101285.50
2022-12-28T01:41:50.052Z,101277.69
2022-12-28T01:43:54.972Z,101284.88
2022-12-28T01:45:56.980Z,101276.03
2022-12-28T01:47:58.973Z,101273.84
2022-12-28T01:50:08.744Z,101276.69
2022-12-28T01:52:20.000Z,101283.69
2022-12-28T01:54:26.649Z,101287.16
2022-12-28T01:56:31.670Z,101284.94
2022-12-28T01:58:35.734Z,101273.22
2022-12-28T02:00:37.757Z,101285.38
2022-12-28T02:02:44.655Z,101290.69
2022-12-28T02:04:47.775Z,101283.06
2022-12-28T02:06:49.762Z,101281.09
2022-12-28T02:09:19.775Z,101281.06
2022-12-28T02:11:22.059Z,101280.63
2022-12-28T02:13:25.664Z,101272.41
2022-12-28T02:15:27.793Z,101277.50
2022-12-28T02:17:30.030Z,101275.63
2022-12-28T02:19:46.216Z,101276.34
2022-12-28T02:22:01.181Z,101273.16
2022-12-28T02:24:24.239Z,101269.44
2022-12-28T02:26:52.576Z,101258.09
2022-12-28T02:29:22.474Z,101256.44
2022-12-28T02:31:39.947Z,101250.25
2022-12-28T02:33:58.932Z,101250.06
2022-12-28T02:36:18.251Z,101253.66
2022-12-28T02:38:40.621Z,101254.56
2022-12-28T02:41:14.289Z,101259.41
2022-12-28T02:43:17.477Z,101256.00
2022-12-28T02:45:56.314Z,101256.56
2022-12-28T02:48:30.405Z,101259.41
2022-12-28T02:50:46.102Z,101255.13
2022-12-28T02:52:57.028Z,101254.34
2022-12-28T02:55:38.744Z,101248.97
2022-12-28T02:57:58.735Z,101255.56
2022-12-28T03:00:18.170Z,101251.16
2022-12-28T03:02:49.345Z,101258.00
2022-12-28T03:05:02.275Z,101256.69
2022-12-28T03:07:28.125Z,101264.81
2022-12-28T03:09:44.826Z,101264.94
2022-12-28T03:12:15.520Z,101256.78
2022-12-28T03:14:24.979Z,101256.22
2022-12-28T03:17:06.686Z,101259.06
2022-12-28T03:19:29.455Z,101264.28
2022-12-28T03:21:52.206Z,101257.88
2022-12-28T03:24:15.437Z,101264.72
2022-12-28T03:26:41.021Z,101255.34
2022-12-28T03:29:03.106Z,101260.19
2022-12-28T03:31:13.582Z,101258.84
2022-12-28T03:33:15.680Z,101248.91
2022-12-28T03:35:22.828Z,101245.84
2022-12-28T03:37:43.598Z,101237.03
2022-12-28T03:39:53.253Z,101233.31
2022-12-28T03:42:24.951Z,101241.66
2022-12-28T03:44:33.129Z,101233.53
2022-12-28T03:46:46.619Z,101235.72
2022-12-28T03:48:50.837Z,101227.44
2022-12-28T03:50:55.212Z,101221.59
2022-12-28T03:52:59.455Z,101219.63
2022-12-28T03:55:01.437Z,101204.63
2022-12-28T03:57:03.502Z,101195.19
2022-12-28T03:59:05.369Z,101191.53
2022-12-28T04:01:07.360Z,101187.78
2022-12-28T04:03:09.372Z,101189.44
2022-12-28T04:05:11.315Z,101181.94
2022-12-28T04:07:13.208Z,101185.22
2022-12-28T04:09:15.344Z,101180.59
2022-12-28T04:11:18.248Z,101186.06
2022-12-28T04:13:20.222Z,101184.75
2022-12-28T04:15:22.041Z,101189.94
2022-12-28T04:17:24.976Z,101196.16
2022-12-28T04:19:26.898Z,101197.47
2022-12-28T04:21:28.805Z,101194.81
2022-12-28T04:23:31.977Z,101185.34
2022-12-28T04:25:33.869Z,101188.00
2022-12-28T04:27:35.708Z,101181.56
2022-12-28T04:29:37.629Z,101187.34
2022-12-28T04:31:39.567Z,101193.06
2022-12-28T04:33:41.516Z,101185.47
2022-12-28T04:35:44.389Z,101194.81
2022-12-28T04:37:47.437Z,101195.16
2022-12-28T04:39:55.272Z,101200.56
2022-12-28T04:41:59.086Z,101192.31
2022-12-28T04:44:01.063Z,101197.94
2022-12-28T04:46:05.867Z,101192.25
2022-12-28T04:48:07.877Z,101192.41
2022-12-28T04:50:10.869Z,101191.09
2022-12-28T04:52:12.903Z,101189.75
2022-12-28T04:54:15.807Z,101185.97
2022-12-28T04:56:19.873Z,101188.22
2022-12-28T04:58:21.719Z,101179.66
2022-12-28T05:00:23.647Z,101178.25
2022-12-28T05:02:26.588Z,101183.25
2022-12-28T05:04:29.600Z,101175.44
2022-12-28T05:06:31.585Z,101179.38
2022-12-28T05:08:35.362Z,101171.41
2022-12-28T05:10:38.238Z,101176.97
2022-12-28T05:12:40.162Z,101182.69
2022-12-28T05:14:42.469Z,101181.56
2022-12-28T05:16:44.382Z,101175.16
2022-12-28T05:18:46.350Z,101176.09
2022-12-28T05:20:48.318Z,101179.97
2022-12-28T05:22:50.252Z,101167.47
2022-12-28T05:24:52.131Z,101169.00
2022-12-28T05:26:55.295Z,101180.19
2022-12-28T05:28:57.480Z,101182.50
2022-12-28T05:31:05.279Z,101180.63
2022-12-28T05:33:07.203Z,101180.84
2022-12-28T05:35:09.732Z,101168.22
2022-12-28T05:37:15.731Z,101167.22
2022-12-28T05:39:22.129Z,101163.69
2022-12-28T05:41:28.663Z,101160.13
2022-12-28T05:43:30.708Z,101159.88
2022-12-28T05:45:32.938Z,101167.16
2022-12-28T05:47:34.857Z,101161.13
2022-12-28T05:49:36.670Z,101158.69
2022-12-28T05:51:40.151Z,101155.06
2022-12-28T05:53:42.957Z,101153.84
2022-12-28T05:55:44.898Z,101155.59
2022-12-28T05:57:46.856Z,101148.34
2022-12-28T05:59:48.772Z,101153.84
2022-12-28T06:01:50.974Z,101151.06
2022-12-28T06:03:57.439Z,101150.81
2022-12-28T06:06:11.048Z,101159.28
2022-12-28T06:08:16.060Z,101152.59
2022-12-28T06:10:20.197Z,101149.38
2022-12-28T06:12:22.109Z,101144.13
2022-12-28T06:14:24.138Z,101148.53
2022-12-28T06:16:31.535Z,101149.19
2022-12-28T06:18:34.141Z,101145.94
2022-12-28T06:20:35.965Z,101146.03
2022-12-28T06:22:37.930Z,101148.19
2022-12-28T06:24:40.832Z,101141.69
2022-12-28T06:26:42.955Z,101137.53
2022-12-28T06:28:45.789Z,101141.06
2022-12-28T06:30:52.320Z,101135.53
2022-12-28T06:32:57.094Z,101137.41
2022-12-28T06:34:59.962Z,101137.19
2022-12-28T06:37:04.412Z,101137.19
2022-12-28T06:39:09.262Z,101141.34
2022-12-28T06:41:15.115Z,101134.19
2022-12-28T06:43:18.274Z,101135.84
2022-12-28T06:45:20.254Z,101140.81
2022-12-28T06:47:22.201Z,101142.81
2022-12-28T06:49:26.123Z,101141.34
2022-12-28T06:51:30.427Z,101136.63
2022-12-28T06:53:35.330Z,101136.00
2022-12-28T06:55:37.324Z,101134.69
2022-12-28T06:57:39.292Z,101124.69
2022-12-28T06:59:41.260Z,101124.13
2022-12-28T07:01:46.973Z,101125.34
2022-12-28T07:03:51.419Z,101115.22
2022-12-28T07:05:53.336Z,101115.47
2022-12-28T07:07:56.258Z,101109.41
2022-12-28T07:10:00.178Z,101107.53
2022-12-28T07:12:02.144Z,101107.31
2022-12-28T07:14:06.225Z,101100.75
2022-12-28T07:16:12.030Z,101105.47
2022-12-28T07:18:15.068Z,101101.22
2022-12-28T07:20:17.171Z,101104.47
2022-12-28T07:22:19.079Z,101098.47
2022-12-28T07:24:23.069Z,101091.97
2022-12-28T07:26:28.205Z,101095.50
2022-12-28T07:28:30.171Z,101093.66
2022-12-28T07:30:32.177Z,101097.06
2022-12-28T07:32:37.434Z,101096.38
2022-12-28T07:34:39.416Z,101094.41
2022-12-28T07:36:41.655Z,101097.91
2022-12-28T07:38:44.393Z,101097.50
2022-12-28T07:40:47.313Z,101096.84
2022-12-28T07:42:49.254Z,101094.66
2022-12-28T07:44:51.269Z,101094.19
2022-12-28T07:46:54.156Z,101097.25
2022-12-28T07:48:57.353Z,101093.88
2022-12-28T07:51:16.438Z,101090.25
2022-12-28T07:53:22.044Z,101091.66
2022-12-28T07:55:25.128Z,101097.72
2022-12-28T07:57:27.072Z,101091.25
2022-12-28T07:59:31.152Z,101097.50
2022-12-28T08:01:35.727Z,101101.03
2022-12-28T08:03:38.539Z,101102.34
2022-12-28T08:05:40.530Z,101100.56
2022-12-28T08:07:42.419Z,101095.63
2022-12-28T08:09:44.399Z,101087.25
2022-12-28T08:11:49.065Z,101090.00
2022-12-28T08:13:53.665Z,101076.78
2022-12-28T08:15:57.956Z,101078.97
2022-12-28T08:18:00.932Z,101080.72
2022-12-28T08:20:03.206Z,101071.25
2022-12-28T08:22:05.275Z,101077.31
2022-12-28T08:24:09.086Z,101066.97
2022-12-28T08:26:19.751Z,101074.16
2022-12-28T08:28:21.814Z,101070.50
2022-12-28T08:30:23.699Z,101069.47
2022-12-28T08:32:25.625Z,101066.19
2022-12-28T08:34:27.680Z,101072.94
2022-12-28T08:36:30.339Z,101076.84
2022-12-28T08:38:33.260Z,101075.78
2022-12-28T08:40:35.202Z,101076.59
2022-12-28T08:42:37.067Z,101068.41
2022-12-28T08:44:38.930Z,101072.22
2022-12-28T08:46:41.539Z,101074.94
2022-12-28T08:48:44.287Z,101071.97
2022-12-28T08:50:46.239Z,101059.59
2022-12-28T08:52:48.256Z,101061.94
2022-12-28T08:54:50.344Z,101064.75
2022-12-28T08:56:53.692Z,101054.94
2022-12-28T08:58:57.828Z,101060.06
2022-12-28T09:01:20.191Z,101057.09
2022-12-28T09:03:22.201Z,101062.69
2022-12-28T09:05:24.073Z,101057.59
2022-12-28T09:07:25.985Z,101057.53
2022-12-28T09:09:29.957Z,101067.16
2022-12-28T09:11:31.878Z,101068.13
2022-12-28T09:13:36.965Z,101059.69
2022-12-28T09:15:39.975Z,101069.75
2022-12-28T09:17:42.004Z,101067.59
2022-12-28T09:19:43.942Z,101057.09
2022-12-28T09:21:49.249Z,101062.34
2022-12-28T09:23:52.580Z,101054.81
2022-12-28T09:25:55.520Z,101050.78
2022-12-28T09:27:59.453Z,101044.66
2022-12-28T09:30:01.691Z,101049.13
2022-12-28T09:32:03.735Z,101037.03
2022-12-28T09:36:37.321Z,101033.59
2022-12-28T09:38:39.282Z,101033.94
2022-12-28T09:40:41.534Z,101024.47
2022-12-28T09:42:43.961Z,101019.91
2022-12-28T09:44:57.622Z,101008.91
2022-12-28T09:47:10.552Z,101005.03
2022-12-28T09:49:16.778Z,100995.13
2022-12-28T09:51:24.432Z,100996.44
2022-12-28T09:53:34.870Z,100996.69
2022-12-28T09:55:40.272Z,100998.56
2022-12-28T09:57:49.168Z,100980.75
2022-12-28T09:59:53.545Z,100979.41
2022-12-28T10:01:59.255Z,100966.53
2022-12-28T10:04:02.434Z,100963.34
2022-12-28T10:06:12.500Z,100961.34
2022-12-28T10:08:19.382Z,100959.38
2022-12-28T10:10:23.922Z,100951.13
2022-12-28T10:12:30.286Z,100943.38
2022-12-28T10:14:36.045Z,100947.91
2022-12-28T10:16:42.847Z,100945.22
2022-12-28T10:18:50.562Z,100940.72
2022-12-28T10:20:55.239Z,100940.69
2022-12-28T10:22:59.738Z,100940.59
2022-12-28T10:25:01.657Z,100938.03
2022-12-28T10:27:06.853Z,100937.63
2022-12-28T10:29:15.186Z,100928.56
2022-12-28T10:31:34.099Z,100926.63
2022-12-28T10:33:41.786Z,100930.88
2022-12-28T10:35:50.709Z,100931.19
2022-12-28T10:38:00.073Z,100929.44
2022-12-28T10:40:07.019Z,100928.47
2022-12-28T10:42:21.132Z,100931.97
2022-12-28T10:44:39.352Z,100927.59
2022-12-28T10:46:56.541Z,100925.31
2022-12-28T10:49:03.582Z,100914.06
2022-12-28T10:51:16.267Z,100924.44
2022-12-28T10:53:40.620Z,100921.63
2022-12-28T10:55:43.637Z,100899.81
2022-12-28T10:58:18.993Z,100899.50
2022-12-28T11:00:23.370Z,100881.13
2022-12-28T11:02:30.492Z,100879.78
2022-12-28T11:04:32.544Z,100877.84
2022-12-28T11:06:37.160Z,100869.16
2022-12-28T11:08:40.035Z,100872.69
2022-12-28T11:10:42.155Z,100868.22
2022-12-28T11:12:45.712Z,100866.22
2022-12-28T11:14:48.933Z,100849.84
2022-12-28T11:16:53.481Z,100847.91
2022-12-28T11:18:57.676Z,100844.41
2022-12-28T11:20:59.664Z,100843.44
2022-12-28T11:23:06.997Z,100839.94
2022-12-28T11:25:09.448Z,100839.69
2022-12-28T11:27:16.551Z,100858.22
2022-12-28T11:29:20.672Z,100866.81
2022-12-28T11:31:31.376Z,100859.84
2022-12-28T11:33:42.534Z,100861.34
2022-12-28T11:35:57.499Z,100852.97
2022-12-28T11:38:03.962Z,100851.50
2022-12-28T11:40:06.438Z,100840.84
2022-12-28T11:44:31.108Z,100830.72
2022-12-28T11:46:40.713Z,100819.91
2022-12-28T11:48:42.695Z,100821.69
2022-12-28T11:50:53.114Z,100817.69
2022-12-28T11:52:55.066Z,100820.06
2022-12-28T11:55:03.064Z,100809.88
2022-12-28T11:57:05.724Z,100803.53
2022-12-28T11:59:23.964Z,100797.97
2022-12-28T12:01:30.015Z,100799.69
2022-12-28T12:03:59.577Z,100786.19
2022-12-28T12:06:01.520Z,100786.03
2022-12-28T12:08:16.759Z,100768.38
2022-12-28T12:10:30.776Z,100776.31
2022-12-28T12:12:35.986Z,100763.75
2022-12-28T12:14:45.969Z,100765.25
2022-12-28T12:17:10.109Z,100764.75
2022-12-28T12:19:24.012Z,100759.75
2022-12-28T12:21:46.075Z,100751.97
2022-12-28T12:23:57.037Z,100746.06
2022-12-28T12:26:10.786Z,100736.03
2022-12-28T12:28:33.729Z,100737.22
2022-12-28T12:30:36.614Z,100728.84
2022-12-28T12:33:02.526Z,100734.38
2022-12-28T12:35:07.755Z,100737.00
2022-12-28T12:37:43.663Z,100729.28
2022-12-28T12:39:48.551Z,100715.84
2022-12-28T12:42:04.768Z,100715.66
2022-12-28T12:44:06.662Z,100715.66
2022-12-28T12:46:39.360Z,100711.47
2022-12-28T12:49:15.879Z,100714.94
2022-12-28T12:51:37.567Z,100714.38
2022-12-28T12:53:51.142Z,100710.78
2022-12-28T12:56:12.187Z,100704.97
2022-12-28T12:58:22.023Z,100694.31
2022-12-28T13:00:24.730Z,100696.47
2022-12-28T13:02:45.569Z,100695.84
2022-12-28T13:04:49.462Z,100688.19
2022-12-28T13:06:59.439Z,100678.41
2022-12-28T13:09:05.890Z,100677.78
2022-12-28T13:11:15.446Z,100671.19
2022-12-28T13:13:33.523Z,100673.78
2022-12-28T13:15:36.827Z,100683.97
2022-12-28T13:17:38.841Z,100674.81
2022-12-28T13:19:40.890Z,100679.69
2022-12-28T13:21:45.859Z,100669.78
2022-12-28T13:23:48.952Z,100663.09
2022-12-28T13:25:55.191Z,100664.91
2022-12-28T13:28:03.118Z,100658.81
2022-12-28T13:30:18.267Z,100662.88
2022-12-28T13:32:38.724Z,100644.34
2022-12-28T13:34:49.710Z,100644.66
2022-12-28T13:37:00.752Z,100648.09
2022-12-28T13:39:10.710Z,100653.31
2022-12-28T13:41:26.042Z,100640.44
2022-12-28T13:44:01.512Z,100636.28
2022-12-28T13:46:09.267Z,100636.94
2022-12-28T13:48:11.863Z,100637.56
2022-12-28T13:50:18.669Z,100640.13
2022-12-28T13:52:52.517Z,100635.03
2022-12-28T13:54:59.142Z,100629.31
2022-12-28T13:57:28.331Z,100629.84
2022-12-28T13:59:23.945Z,100621.34
2022-12-28T14:01:32.306Z,100631.16
2022-12-28T14:03:41.413Z,100615.03
2022-12-28T14:05:50.905Z,100613.16
2022-12-28T14:07:55.200Z,100614.84
2022-12-28T14:09:57.559Z,100615.72
2022-12-28T14:12:00.707Z,100613.75
2022-12-28T14:14:04.213Z,100612.97
2022-12-28T14:16:07.771Z,100609.53
2022-12-28T14:18:15.313Z,100609.72
2022-12-28T14:20:18.466Z,100600.22
2022-12-28T14:22:37.815Z,100597.25
2022-12-28T14:25:04.404Z,100605.06
2022-12-28T14:27:06.375Z,100597.91
2022-12-28T14:29:21.533Z,100604.38
2022-12-28T14:31:32.387Z,100596.44
2022-12-28T14:33:50.641Z,100594.53
2022-12-28T14:35:58.274Z,100599.72
2022-12-28T14:38:01.201Z,100588.88
2022-12-28T14:40:05.563Z,100593.25
2022-12-28T14:42:20.570Z,100589.91
2022-12-28T14:44:36.858Z,100596.66
2022-12-28T14:46:41.464Z,100589.03
2022-12-28T14:48:45.188Z,100588.22
2022-12-28T14:50:59.280Z,100573.75
2022-12-28T14:53:21.439Z,100563.00
2022-12-28T14:55:33.427Z,100563.91
2022-12-28T14:57:44.476Z,100569.91
2022-12-28T15:00:11.134Z,100563.16
2022-12-28T15:02:52.077Z,100560.63
2022-12-28T15:05:00.435Z,100565.53
2022-12-28T15:07:04.683Z,100571.75
2022-12-28T15:09:08.626Z,100565.03
2022-12-28T15:11:14.480Z,100561.53
2022-12-28T15:13:18.061Z,100565.66
2022-12-28T15:15:20.875Z,100566.97
2022-12-28T15:17:26.791Z,100561.09
2022-12-28T15:19:31.744Z,100562.19
2022-12-28T15:21:33.691Z,100559.94
2022-12-28T15:23:35.726Z,100562.66
2022-12-28T15:25:37.739Z,100560.13
2022-12-28T15:27:40.657Z,100553.25
2022-12-28T15:32:04.964Z,100555.47
2022-12-28T15:34:07.953Z,100549.94
2022-12-28T15:36:21.443Z,100554.16
2022-12-28T15:38:23.377Z,100556.56
2022-12-28T15:40:25.351Z,100566.66
2022-12-28T15:42:27.584Z,100563.78
2022-12-28T15:44:29.644Z,100563.19
2022-12-28T15:46:32.035Z,100560.50
2022-12-28T15:48:35.272Z,100560.63
2022-12-28T15:50:37.223Z,100559.59
2022-12-28T15:52:39.265Z,100555.84
2022-12-28T15:54:46.750Z,100548.03
2022-12-28T15:56:54.482Z,100552.78
2022-12-28T15:58:58.786Z,100544.97
2022-12-28T16:01:01.013Z,100545.56
2022-12-28T16:03:03.441Z,100548.84
2022-12-28T16:05:07.027Z,100543.09
2022-12-28T16:07:10.180Z,100542.72
2022-12-28T16:09:13.369Z,100543.31
2022-12-28T16:11:17.860Z,100548.34
2022-12-28T16:13:19.861Z,100543.25
2022-12-28T16:15:22.945Z,100542.59
2022-12-28T16:17:24.929Z,100536.53
2022-12-28T16:19:26.914Z,100533.78
2022-12-28T16:21:29.870Z,100532.22
2022-12-28T16:23:33.853Z,100528.31
2022-12-28T16:25:37.962Z,100533.59
2022-12-28T16:27:39.927Z,100529.47
2022-12-28T16:29:42.055Z,100535.44
2022-12-28T16:31:45.278Z,100535.50
2022-12-28T16:33:47.258Z,100527.94
2022-12-28T16:35:51.884Z,100516.84
2022-12-28T16:37:57.911Z,100522.97
2022-12-28T16:40:00.001Z,100531.16
2022-12-28T16:42:02.024Z,100527.13
2022-12-28T16:44:12.515Z,100525.59
2022-12-28T16:46:14.918Z,100527.03
2022-12-28T16:48:17.092Z,100528.16
2022-12-28T16:50:19.068Z,100540.91
2022-12-28T16:52:21.039Z,100536.06
2022-12-28T16:54:26.404Z,100532.56
2022-12-28T16:56:28.381Z,100522.25
2022-12-28T16:58:36.457Z,100524.78
2022-12-28T17:00:38.443Z,100519.69
2022-12-28T17:02:41.457Z,100509.28
2022-12-28T17:04:44.175Z,100512.53
2022-12-28T17:06:47.056Z,100512.47
2022-12-28T17:08:50.966Z,100511.22
2022-12-28T17:10:53.002Z,100513.00
2022-12-28T17:12:54.933Z,100502.06
2022-12-28T17:15:03.219Z,100513.81
2022-12-28T17:17:08.248Z,100517.84
2022-12-28T17:19:12.350Z,100507.38
2022-12-28T17:21:15.395Z,100515.31
2022-12-28T17:23:18.354Z,100509.50
2022-12-28T17:25:21.396Z,100513.81
2022-12-28T17:27:23.309Z,100504.03
2022-12-28T17:29:25.262Z,100505.69
2022-12-28T17:31:29.333Z,100506.25
2022-12-28T17:33:37.111Z,100509.34
2022-12-28T17:35:41.512Z,100505.63
2022-12-28T17:37:46.804Z,100498.84
2022-12-28T17:39:48.850Z,100504.44
2022-12-28T17:41:50.890Z,100498.25
2022-12-28T17:43:56.784Z,100491.13
2022-12-28T17:46:01.869Z,100493.88
2022-12-28T17:48:04.632Z,100482.69
2022-12-28T17:50:07.547Z,100482.81
2022-12-28T17:52:09.549Z,100488.53
2022-12-28T17:54:14.569Z,100484.59
2022-12-28T17:56:16.943Z,100486.31
2022-12-28T17:58:18.926Z,100482.94
2022-12-28T18:00:22.199Z,100481.34
2022-12-28T18:02:24.524Z,100495.03
2022-12-28T18:04:26.946Z,100481.88
2022-12-28T18:06:29.092Z,100487.34
2022-12-28T18:08:31.283Z,100478.75
2022-12-28T18:10:34.473Z,100473.50
2022-12-28T18:12:36.511Z,100483.31
2022-12-28T18:14:38.556Z,100490.09
2022-12-28T18:16:40.739Z,100484.03
2022-12-28T18:18:43.454Z,100489.16
2022-12-28T18:20:46.209Z,100488.44
2022-12-28T18:22:50.255Z,100486.09
2022-12-28T18:24:53.865Z,100483.53
2022-12-28T18:26:55.936Z,100481.75
2022-12-28T18:28:58.290Z,100478.25
2022-12-28T18:31:02.782Z,100464.94
2022-12-28T18:33:05.085Z,100479.06
2022-12-28T18:35:08.053Z,100471.13
2022-12-28T18:37:16.123Z,100465.50
2022-12-28T18:39:18.380Z,100463.88
2022-12-28T18:41:21.547Z,100462.56
2022-12-28T18:43:24.338Z,100460.78
2022-12-28T18:45:26.369Z,100465.03
2022-12-28T18:47:33.159Z,100460.47
2022-12-28T18:49:40.186Z,100462.75
2022-12-28T18:51:44.929Z,100465.56
2022-12-28T18:53:47.580Z,100462.34
2022-12-28T18:56:04.269Z,100468.19
2022-12-28T18:58:07.587Z,100454.72
2022-12-28T19:00:14.341Z,100445.53
2022-12-28T19:02:19.773Z,100441.38
2022-12-28T19:04:22.566Z,100446.34
2022-12-28T19:06:26.918Z,100458.81
2022-12-28T19:08:29.159Z,100444.91
2022-12-28T19:10:31.210Z,100447.53
2022-12-28T19:12:33.522Z,100444.44
2022-12-28T19:14:36.981Z,100448.59
2022-12-28T19:16:40.092Z,100452.28
2022-12-28T19:18:42.179Z,100448.03
2022-12-28T19:20:44.838Z,100449.81
2022-12-28T19:22:47.535Z,100448.31
2022-12-28T19:24:49.656Z,100453.69
2022-12-28T19:26:53.584Z,100445.63
2022-12-28T19:28:55.916Z,100446.03
2022-12-28T19:31:04.811Z,100443.22
2022-12-28T19:33:07.681Z,100448.63
2022-12-28T19:35:09.983Z,100426.41
2022-12-28T19:37:11.975Z,100445.31
2022-12-28T19:39:15.396Z,100444.81
2022-12-28T19:41:19.189Z,100434.25
2022-12-28T19:43:21.773Z,100436.88
2022-12-28T19:45:24.883Z,100437.16
2022-12-28T19:47:28.088Z,100429.91
2022-12-28T19:49:30.372Z,100428.03
2022-12-28T19:51:34.498Z,100425.56
2022-12-28T19:53:37.579Z,100431.41
2022-12-28T19:55:40.880Z,100428.78
2022-12-28T19:57:43.249Z,100427.16
2022-12-28T19:59:47.083Z,100420.16
2022-12-28T20:01:49.860Z,100421.31
2022-12-28T20:04:00.231Z,100425.44
2022-12-28T20:06:18.416Z,100425.28
2022-12-28T20:08:20.350Z,100419.59
2022-12-28T20:10:23.601Z,100421.19
2022-12-28T20:12:25.775Z,100419.59
2022-12-28T20:14:28.480Z,100417.91
2022-12-28T20:16:35.005Z,100415.22
2022-12-28T20:18:37.034Z,100414.16
2022-12-28T20:21:09.286Z,100426.03
2022-12-28T20:23:02.558Z,100424.31
2022-12-28T20:25:14.942Z,100417.59
2022-12-28T20:27:16.841Z,100431.41
2022-12-28T20:29:19.860Z,100424.22
2022-12-28T20:31:23.829Z,100430.53
2022-12-28T20:33:25.933Z,100422.50
2022-12-28T20:35:30.132Z,100433.31
2022-12-28T20:37:32.377Z,100438.44
2022-12-28T20:39:35.557Z,100433.88
2022-12-28T20:41:56.599Z,100441.38
2022-12-28T20:44:05.681Z,100437.88
2022-12-28T20:46:12.233Z,100450.63
2022-12-28T20:48:16.602Z,100449.56
2022-12-28T20:50:19.037Z,100447.41
2022-12-28T20:52:21.142Z,100449.97
2022-12-28T20:54:24.115Z,100433.09
2022-12-28T20:56:27.553Z,100434.16
2022-12-28T20:58:29.677Z,100437.13
2022-12-28T21:00:39.756Z,100432.34
2022-12-28T21:02:42.099Z,100428.16
2022-12-28T21:04:44.319Z,100431.25
2022-12-28T21:06:46.322Z,100434.72
2022-12-28T21:08:48.707Z,100429.13
2022-12-28T21:10:51.868Z,100412.84
2022-12-28T21:12:55.105Z,100414.22
2022-12-28T21:14:58.043Z,100428.53
2022-12-28T21:17:11.809Z,100417.22
2022-12-28T21:20:11.386Z,100419.69
2022-12-28T21:25:04.425Z,100407.03
2022-12-28T21:27:26.609Z,100414.50
2022-12-28T21:29:31.201Z,100407.56
2022-12-28T21:31:33.353Z,100406.66
2022-12-28T21:33:41.544Z,100398.97
2022-12-28T21:35:44.560Z,100393.88
2022-12-28T21:37:46.502Z,100387.84
2022-12-28T21:39:49.468Z,100391.16
2022-12-28T21:41:51.562Z,100399.75
2022-12-28T21:43:53.492Z,100387.72
2022-12-28T21:46:02.618Z,100395.22
2022-12-28T21:48:05.158Z,100390.94
2022-12-28T21:50:09.137Z,100401.53
2022-12-28T21:52:11.057Z,100397.38
2022-12-28T21:54:24.986Z,100406.28
2022-12-28T21:56:27.861Z,100398.69
2022-12-28T21:58:29.854Z,100399.75
2022-12-28T22:00:54.095Z,100407.41
2022-12-28T22:03:17.980Z,100389.75
2022-12-28T22:05:38.795Z,100388.69
2022-12-28T22:07:44.469Z,100389.31
2022-12-28T22:10:08.942Z,100389.31
2022-12-28T22:12:33.150Z,100383.34
2022-12-28T22:14:36.148Z,100383.41
2022-12-28T22:16:38.133Z,100381.91
2022-12-28T22:21:05.448Z,100387.72
2022-12-28T22:23:09.023Z,100394.97
2022-12-28T22:25:15.804Z,100391.31
2022-12-28T22:27:17.758Z,100388.09
2022-12-28T22:29:24.418Z,100390.50
2022-12-28T22:31:26.497Z,100386.34
2022-12-28T22:33:28.569Z,100386.22
2022-12-28T22:35:30.561Z,100385.47
2022-12-28T22:37:34.523Z,100394.00
2022-12-28T22:39:39.982Z,100388.81
2022-12-28T22:41:45.062Z,100381.91
2022-12-28T22:43:53.918Z,100380.84
2022-12-28T22:46:02.422Z,100388.91
2022-12-28T22:48:04.618Z,100379.38
2022-12-28T22:50:08.259Z,100376.03
2022-12-28T22:52:10.217Z,100361.13
2022-12-28T22:54:12.296Z,100364.97
2022-12-28T22:56:21.062Z,100372.84
2022-12-28T22:58:23.247Z,100362.28
2022-12-28T23:00:25.279Z,100370.69
2022-12-28T23:02:29.651Z,100365.31
2022-12-28T23:04:37.767Z,100361.97
2022-12-28T23:06:39.693Z,100358.78
2022-12-28T23:08:41.944Z,100357.84
2022-12-28T23:11:31.821Z,100359.31
2022-12-28T23:13:33.717Z,100356.06
2022-12-28T23:15:35.585Z,100352.44
2022-12-28T23:17:37.566Z,100354.41
2022-12-28T23:19:58.324Z,100346.75
2022-12-28T23:22:19.089Z,100349.97
2022-12-28T23:24:40.714Z,100351.66
2022-12-28T23:27:01.275Z,100346.97
2022-12-28T23:29:03.399Z,100352.06
2022-12-28T23:31:05.707Z,100350.94
2022-12-28T23:33:09.226Z,100353.28
2022-12-28T23:35:11.177Z,100358.97
2022-12-28T23:37:14.157Z,100353.47
2022-12-28T23:39:16.474Z,100350.84
2022-12-28T23:41:36.907Z,100345.84
2022-12-28T23:43:40.925Z,100345.75
2022-12-28T23:45:42.891Z,100348.22
2022-12-28T23:47:45.517Z,100338.72
2022-12-28T23:49:48.537Z,100338.75
2022-12-28T23:51:51.499Z,100338.59
2022-12-28T23:53:53.549Z,100328.38
2022-12-28T23:55:58.483Z,100327.50
2022-12-28T23:58:00.379Z,100332.72
